Niles, Mississippi
Current Conditions -  °F | °C
As of 10:55 PM on Wednesday 22 Oct 2014 (Local Time) from KRNV Reporting Station
Clear Clear  
Wind Chill: 52°   Ceiling: Unl
Heat Index: 52°   Visibility: 10mi
Dew Point: 47°   Wind: 3mph
Humidity: 84%   Direction: 30°NNE
Pressure: 30.17"   Gusts: NA
Location:  33.8277°N, 90.9559°W
Report Text: KRNV 230355Z AUTO 03003KT 10SM CLR 11/09 A3017 RMK AO2 T01120086
Loading
Personal Weather Stations






























Interactive Weather Map
Tropical Storm Tracking
New forecast layout! Learn more

10-Day Weather Forecast

Advertisements
Track Severe Weather on mobile